Time;durP1;ratioP1;P1;durP2;ratioP2;P2;SDS_P1;SDS_P2;PMS_P1;PMS_P2;Temp;Humidity;BMP_temperature;BMP_pressure;BME280_temperature;BME280_humidity;BME280_pressure;Samples;Min_cycle;Max_cycle;Signal;HPM_P1;HPM_P2
2021/06/11 00:01:31;;;;;;;5.20;4.17;;;15.70;99.90;;;;;;1923649;74;21178;-79
2021/06/11 00:03:59;;;;;;;5.17;4.12;;;15.70;99.90;;;;;;1924053;74;21493;-79
2021/06/11 00:06:25;;;;;;;5.72;4.08;;;15.60;99.90;;;;;;1924076;74;21430;-79
2021/06/11 00:08:51;;;;;;;7.55;4.47;;;15.60;99.90;;;;;;1923872;74;21181;-79
2021/06/11 00:11:17;;;;;;;6.60;4.95;;;15.60;99.90;;;;;;1924178;74;21061;-79
2021/06/11 00:13:43;;;;;;;7.90;4.00;;;15.50;99.90;;;;;;1923985;74;21122;-79
2021/06/11 00:16:09;;;;;;;7.40;4.53;;;15.60;99.90;;;;;;1924154;74;21076;-79
2021/06/11 00:18:35;;;;;;;7.12;4.53;;;15.50;99.90;;;;;;1924003;74;21142;-77
2021/06/11 00:21:01;;;;;;;7.87;4.83;;;15.50;99.90;;;;;;1924191;74;21143;-79
2021/06/11 00:23:27;;;;;;;6.05;4.37;;;15.50;99.90;;;;;;1924267;74;21066;-80
2021/06/11 00:25:54;;;;;;;10.38;4.62;;;15.50;99.90;;;;;;1924170;74;21061;-79
2021/06/11 00:28:20;;;;;;;12.05;4.47;;;15.50;99.90;;;;;;1924204;74;21146;-79
2021/06/11 00:30:46;;;;;;;8.20;4.53;;;15.40;99.90;;;;;;1924214;74;21143;-78
2021/06/11 00:33:12;;;;;;;7.03;4.22;;;15.50;99.90;;;;;;1924035;74;21077;-79
2021/06/11 00:35:38;;;;;;;5.20;4.50;;;15.40;99.90;;;;;;1924084;74;21037;-77
2021/06/11 00:38:05;;;;;;;6.30;4.42;;;15.40;99.90;;;;;;1924021;74;21366;-78
2021/06/11 00:40:31;;;;;;;8.30;4.85;;;15.40;99.90;;;;;;1924242;74;21105;-78
2021/06/11 00:42:57;;;;;;;7.42;4.42;;;15.30;99.90;;;;;;1924255;74;21138;-78
2021/06/11 00:45:23;;;;;;;9.80;4.65;;;15.30;99.90;;;;;;1924067;74;21162;-78
2021/06/11 00:47:49;;;;;;;6.53;4.10;;;15.20;99.90;;;;;;1926490;74;21082;-78
2021/06/11 00:50:15;;;;;;;6.78;4.40;;;15.20;99.90;;;;;;1925939;74;21481;-78
2021/06/11 00:52:41;;;;;;;4.72;3.90;;;15.20;99.90;;;;;;1924391;74;21621;-80
2021/06/11 00:55:07;;;;;;;6.00;4.25;;;15.20;99.90;;;;;;1924465;74;21421;-78
2021/06/11 00:57:34;;;;;;;5.58;4.40;;;15.20;99.90;;;;;;1924144;74;21574;-78
2021/06/11 01:00:01;;;;;;;5.87;4.40;;;15.20;99.90;;;;;;1924219;74;21512;-78
2021/06/11 01:02:27;;;;;;;7.10;4.47;;;15.10;99.90;;;;;;1924182;74;21524;-78
2021/06/11 01:04:53;;;;;;;6.05;4.40;;;15.10;99.90;;;;;;1924022;74;21389;-78
2021/06/11 01:07:19;;;;;;;5.50;4.03;;;15.00;99.90;;;;;;1923957;74;21473;-77
2021/06/11 01:09:46;;;;;;;6.28;4.05;;;15.00;99.90;;;;;;1924124;74;21469;-77
2021/06/11 01:12:13;;;;;;;6.28;4.80;;;15.00;99.90;;;;;;1924163;74;21158;-77
2021/06/11 01:14:39;;;;;;;10.82;5.37;;;14.90;99.90;;;;;;1924237;74;21025;-78
2021/06/11 01:17:06;;;;;;;9.30;4.75;;;14.90;99.90;;;;;;1923955;74;21151;-78
2021/06/11 01:19:32;;;;;;;5.15;4.55;;;14.90;99.90;;;;;;1924058;74;21187;-78
2021/06/11 01:21:58;;;;;;;6.65;4.60;;;14.80;99.90;;;;;;1924070;74;21108;-78
2021/06/11 01:24:24;;;;;;;5.47;4.37;;;14.80;99.90;;;;;;1923906;74;21068;-78
2021/06/11 01:26:51;;;;;;;7.83;5.30;;;14.80;99.90;;;;;;1924148;74;21134;-78
2021/06/11 01:29:18;;;;;;;5.05;4.22;;;14.80;99.90;;;;;;1924039;74;21159;-77
2021/06/11 01:31:44;;;;;;;6.92;4.25;;;14.70;99.90;;;;;;1924122;74;21069;-78
2021/06/11 01:34:10;;;;;;;7.58;5.05;;;14.70;99.90;;;;;;1924071;74;21119;-77
2021/06/11 01:36:36;;;;;;;9.33;4.92;;;14.70;99.90;;;;;;1924139;74;21072;-79
2021/06/11 01:39:02;;;;;;;7.72;5.35;;;14.70;99.90;;;;;;1924227;74;21038;-78
2021/06/11 01:41:28;;;;;;;7.17;4.87;;;14.70;99.90;;;;;;1924286;74;21134;-79
2021/06/11 01:43:58;;;;;;;6.70;4.90;;;14.70;99.90;;;;;;1891037;74;21469;-79
2021/06/11 01:46:23;;;;;;;5.83;4.78;;;14.60;99.90;;;;;;1923892;74;21075;-77
2021/06/11 01:48:50;;;;;;;10.32;5.20;;;14.60;99.90;;;;;;1924143;74;21145;-78
2021/06/11 01:51:16;;;;;;;5.83;5.00;;;14.60;99.90;;;;;;1924301;74;21139;-78
2021/06/11 01:53:48;;;;;;;6.53;5.12;;;14.60;99.90;;;;;;1924141;74;21531;-78
2021/06/11 01:56:14;;;;;;;7.70;5.05;;;14.50;99.90;;;;;;1924253;74;21076;-78
2021/06/11 01:58:41;;;;;;;14.07;5.83;;;14.50;99.90;;;;;;1924224;74;21378;-78
2021/06/11 02:01:10;;;;;;;6.28;5.10;;;14.50;99.90;;;;;;1924194;74;21041;-78
2021/06/11 02:03:34;;;;;;;6.47;5.30;;;14.50;99.90;;;;;;1923518;74;21078;-78
2021/06/11 02:06:01;;;;;;;7.12;4.95;;;14.50;99.90;;;;;;1923999;74;21206;-78
2021/06/11 02:08:34;;;;;;;12.40;5.37;;;14.50;99.90;;;;;;1922865;74;21143;-78
2021/06/11 02:10:56;;;;;;;6.65;5.03;;;14.50;99.90;;;;;;1919814;73;21171;-79
2021/06/11 02:13:22;;;;;;;7.20;5.25;;;14.50;99.90;;;;;;1924281;74;21195;-77
2021/06/11 02:15:49;;;;;;;11.03;5.15;;;14.40;99.90;;;;;;1924287;74;21081;-78
2021/06/11 02:18:20;;;;;;;9.53;5.72;;;14.50;99.90;;;;;;1924413;74;21107;-78
2021/06/11 02:20:47;;;;;;;7.97;4.95;;;14.40;99.90;;;;;;1924090;74;21114;-79
2021/06/11 02:23:13;;;;;;;8.35;5.17;;;14.40;99.90;;;;;;1924511;74;21065;-78
2021/06/11 02:25:39;;;;;;;8.63;5.15;;;14.40;99.90;;;;;;1924512;74;21073;-78
2021/06/11 02:28:08;;;;;;;10.90;5.15;;;14.30;99.90;;;;;;1924450;74;21038;-77
2021/06/11 02:30:33;;;;;;;7.50;4.85;;;14.30;99.90;;;;;;1923978;74;21516;-78
2021/06/11 02:33:00;;;;;;;8.33;4.92;;;14.30;99.90;;;;;;1924160;74;21562;-78
2021/06/11 02:35:27;;;;;;;10.50;5.20;;;14.30;99.90;;;;;;1924330;74;21134;-78
2021/06/11 02:37:53;;;;;;;6.53;5.15;;;14.20;99.90;;;;;;1924141;74;21038;-77
2021/06/11 02:40:19;;;;;;;7.47;5.00;;;14.20;99.90;;;;;;1924258;74;21143;-77
2021/06/11 02:42:46;;;;;;;7.00;5.37;;;14.20;99.90;;;;;;1924331;74;21065;-77
2021/06/11 02:45:15;;;;;;;7.65;5.72;;;14.20;99.90;;;;;;1924246;74;21519;-77
2021/06/11 02:47:40;;;;;;;11.65;5.85;;;14.10;99.90;;;;;;1923513;73;21195;-77
2021/06/11 02:50:06;;;;;;;6.05;5.03;;;14.10;99.90;;;;;;1924365;74;21146;-75
2021/06/11 02:52:35;;;;;;;9.95;5.20;;;14.20;99.90;;;;;;1924317;74;21068;-77
2021/06/11 02:55:01;;;;;;;13.55;5.62;;;14.20;99.90;;;;;;1924463;74;21182;-77
2021/06/11 02:57:29;;;;;;;8.05;5.25;;;14.10;99.90;;;;;;1924385;74;21040;-78
2021/06/11 02:59:55;;;;;;;6.25;5.17;;;14.10;99.90;;;;;;1924891;74;21082;-78
2021/06/11 03:02:21;;;;;;;8.28;5.40;;;14.10;99.90;;;;;;1926992;74;21089;-78
2021/06/11 03:04:50;;;;;;;11.63;5.55;;;14.20;99.90;;;;;;1927211;74;21133;-77
2021/06/11 03:07:15;;;;;;;12.80;5.65;;;14.10;99.90;;;;;;1925949;74;21050;-77
2021/06/11 03:09:41;;;;;;;9.43;5.20;;;14.10;99.90;;;;;;1924682;74;21109;-77
2021/06/11 03:12:11;;;;;;;9.48;5.65;;;14.00;99.90;;;;;;1924502;74;21065;-78
2021/06/11 03:14:39;;;;;;;9.43;5.35;;;14.00;99.90;;;;;;1924521;74;21154;-78
2021/06/11 03:17:05;;;;;;;7.17;5.42;;;14.00;99.90;;;;;;1924086;74;21481;-78
2021/06/11 03:19:31;;;;;;;10.85;5.72;;;13.90;99.90;;;;;;1926163;74;21260;-78
2021/06/11 03:21:58;;;;;;;8.13;5.50;;;13.90;99.90;;;;;;1926490;74;21050;-78
2021/06/11 03:24:24;;;;;;;9.05;6.12;;;13.80;99.90;;;;;;1893611;74;21150;-79
2021/06/11 03:26:52;;;;;;;11.43;7.15;;;13.80;99.90;;;;;;1926489;74;21076;-77
2021/06/11 03:29:18;;;;;;;11.20;6.47;;;13.80;99.90;;;;;;1926866;74;21022;-79
2021/06/11 03:31:57;;;;;;;;;;;;;;;;;;;;;
2021/06/11 03:34:22;;;;;;;;;;;13.80;99.90;;;;;;1922108;74;21474;-78
2021/06/11 03:36:48;;;;;;;17.45;6.78;;;13.90;99.90;;;;;;1923003;74;20114;-79
2021/06/11 03:39:15;;;;;;;9.00;6.22;;;13.90;99.90;;;;;;1926129;74;21086;-78
2021/06/11 03:41:41;;;;;;;14.53;5.87;;;13.90;99.90;;;;;;1925233;74;21560;-79
2021/06/11 03:44:07;;;;;;;13.22;6.08;;;14.00;99.90;;;;;;1925188;74;21535;-79
2021/06/11 03:46:33;;;;;;;10.23;6.60;;;14.00;99.90;;;;;;1924915;74;21562;-79
2021/06/11 03:48:59;;;;;;;7.95;6.15;;;14.00;99.90;;;;;;1924819;74;21522;-80
2021/06/11 03:51:26;;;;;;;8.78;6.28;;;14.00;99.90;;;;;;1924754;74;21517;-80
2021/06/11 03:53:52;;;;;;;8.13;6.90;;;14.10;99.90;;;;;;1890322;74;21193;-79
2021/06/11 03:56:20;;;;;;;11.70;7.65;;;14.20;99.90;;;;;;1921072;74;21073;-79
2021/06/11 03:58:46;;;;;;;10.58;6.85;;;14.10;99.90;;;;;;1924310;74;21068;-80
2021/06/11 04:01:19;;;;;;;12.15;7.37;;;14.10;99.90;;;;;;1923537;74;21134;-79
2021/06/11 04:03:40;;;;;;;10.53;6.87;;;14.30;99.90;;;;;;1918734;74;21167;-79
2021/06/11 04:06:06;;;;;;;13.53;6.70;;;14.30;99.90;;;;;;1924601;74;21030;-79
2021/06/11 04:08:33;;;;;;;12.55;7.92;;;14.20;99.90;;;;;;1919792;74;21073;-78
2021/06/11 04:11:02;;;;;;;9.65;6.90;;;14.20;99.90;;;;;;1900954;73;21130;-79
2021/06/11 04:13:31;;;;;;;12.58;6.08;;;14.30;99.90;;;;;;1923608;74;21557;-80
2021/06/11 04:15:55;;;;;;;9.45;7.10;;;14.40;99.90;;;;;;1921079;74;21248;-77
2021/06/11 04:18:22;;;;;;;11.78;6.95;;;14.40;99.90;;;;;;1924327;74;21041;-77
2021/06/11 04:20:48;;;;;;;10.35;7.92;;;14.50;99.90;;;;;;1924353;74;21073;-77
2021/06/11 04:23:14;;;;;;;10.90;7.60;;;14.40;99.90;;;;;;1924178;74;21122;-78
2021/06/11 04:25:40;;;;;;;14.28;7.53;;;14.50;99.90;;;;;;1924261;74;21057;-82
2021/06/11 04:28:06;;;;;;;9.18;6.75;;;14.50;99.90;;;;;;1924246;74;21061;-77
2021/06/11 04:30:32;;;;;;;12.63;7.42;;;14.40;99.90;;;;;;1924226;74;21069;-78
2021/06/11 04:32:58;;;;;;;9.73;6.05;;;14.50;99.90;;;;;;1924259;74;21142;-79
2021/06/11 04:35:25;;;;;;;13.35;6.25;;;14.60;99.90;;;;;;1924309;74;21061;-77
2021/06/11 04:37:53;;;;;;;8.93;5.60;;;14.60;99.90;;;;;;1924543;74;21038;-78
2021/06/11 04:40:24;;;;;;;11.05;5.85;;;14.50;99.90;;;;;;1924598;74;21147;-78
2021/06/11 04:42:52;;;;;;;9.43;5.90;;;14.60;99.90;;;;;;1926715;74;21126;-79
2021/06/11 04:45:18;;;;;;;9.13;5.55;;;14.60;99.90;;;;;;1923434;74;21081;-79
2021/06/11 04:47:47;;;;;;;12.80;6.08;;;14.50;99.90;;;;;;1924200;74;21030;-80
2021/06/11 04:50:12;;;;;;;7.67;6.12;;;14.40;99.90;;;;;;1923617;73;21157;-81
2021/06/11 04:52:38;;;;;;;6.90;5.50;;;14.40;99.90;;;;;;1923967;74;21065;-82
2021/06/11 04:55:04;;;;;;;8.45;6.22;;;14.50;99.90;;;;;;1924150;74;21057;-85
2021/06/11 04:57:31;;;;;;;10.03;5.83;;;14.50;99.90;;;;;;1924077;74;21034;-86
2021/06/11 04:59:57;;;;;;;10.85;5.47;;;14.60;99.90;;;;;;1924123;74;21061;-84
2021/06/11 05:02:23;;;;;;;7.17;5.58;;;14.70;99.90;;;;;;1924190;74;21069;-82
2021/06/11 05:04:49;;;;;;;9.10;5.50;;;14.60;99.90;;;;;;1924182;74;21034;-84
2021/06/11 05:07:15;;;;;;;9.55;6.25;;;14.70;99.90;;;;;;1924119;74;21068;-84
2021/06/11 05:09:41;;;;;;;8.03;5.33;;;14.90;99.90;;;;;;1924204;74;21065;-84
2021/06/11 05:12:09;;;;;;;7.83;5.45;;;15.00;99.90;;;;;;1924152;74;21025;-84
2021/06/11 05:14:35;;;;;;;5.70;4.53;;;15.20;99.90;;;;;;1924249;74;21077;-84
2021/06/11 05:17:02;;;;;;;6.75;5.53;;;15.30;99.90;;;;;;1924093;74;21755;-83
2021/06/11 05:19:28;;;;;;;6.42;4.83;;;15.30;99.90;;;;;;1924257;74;21069;-84
2021/06/11 05:21:55;;;;;;;6.55;4.85;;;15.50;99.90;;;;;;1924199;74;21158;-83
2021/06/11 05:24:21;;;;;;;7.58;5.17;;;15.60;99.90;;;;;;1924180;74;21034;-82
2021/06/11 05:26:47;;;;;;;12.25;4.60;;;16.00;99.90;;;;;;1924224;74;21060;-83
2021/06/11 05:29:13;;;;;;;5.37;4.30;;;16.40;99.90;;;;;;1924183;74;21082;-83
2021/06/11 05:31:39;;;;;;;10.58;4.45;;;17.10;99.90;;;;;;1924544;74;21150;-84
2021/06/11 05:34:05;;;;;;;4.53;3.72;;;17.50;99.90;;;;;;1925391;74;21040;-82
2021/06/11 05:36:31;;;;;;;5.37;3.58;;;17.90;99.90;;;;;;1925861;74;21162;-81
2021/06/11 05:38:57;;;;;;;7.12;3.80;;;18.30;99.90;;;;;;1926687;74;21118;-84
2021/06/11 05:41:24;;;;;;;4.22;3.40;;;18.40;99.90;;;;;;1926602;74;21493;-83
2021/06/11 05:43:51;;;;;;;4.35;3.33;;;18.80;99.90;;;;;;1924976;74;21436;-83
2021/06/11 05:46:17;;;;;;;5.47;3.37;;;19.00;99.90;;;;;;1924374;74;21158;-82
2021/06/11 05:48:44;;;;;;;4.40;3.50;;;19.40;99.90;;;;;;1924466;74;21509;-83
2021/06/11 05:51:10;;;;;;;5.53;3.20;;;20.10;99.90;;;;;;1925227;74;21060;-83
2021/06/11 05:53:37;;;;;;;4.35;3.22;;;19.90;99.90;;;;;;1924997;74;21445;-84
2021/06/11 05:56:04;;;;;;;7.50;3.33;;;20.50;99.90;;;;;;1924521;74;21038;-82
2021/06/11 05:58:30;;;;;;;4.28;3.10;;;19.90;99.90;;;;;;1924830;74;21138;-84
2021/06/11 06:00:56;;;;;;;3.92;2.80;;;19.90;99.90;;;;;;1924760;74;21069;-84
2021/06/11 06:03:22;;;;;;;4.80;3.17;;;19.70;99.90;;;;;;1924726;74;21185;-84
2021/06/11 06:05:49;;;;;;;7.20;3.12;;;20.30;99.90;;;;;;1924830;74;21068;-84
2021/06/11 06:08:15;;;;;;;4.28;2.83;;;20.80;99.90;;;;;;1924888;74;21030;-84
2021/06/11 06:10:41;;;;;;;4.03;2.67;;;21.60;99.90;;;;;;1924854;74;21064;-84
2021/06/11 06:13:07;;;;;;;3.40;2.80;;;22.20;99.90;;;;;;1924861;74;21130;-84
2021/06/11 06:15:33;;;;;;;7.62;2.83;;;22.40;99.90;;;;;;1925200;74;21470;-85
2021/06/11 06:18:13;;;;;;;6.05;2.90;;;22.90;99.90;;;;;;1924777;74;21496;-85
2021/06/11 06:20:33;;;;;;;3.17;2.33;;;23.10;99.90;;;;;;1920302;74;21055;-84
2021/06/11 06:22:59;;;;;;;10.88;2.90;;;23.00;99.90;;;;;;1924826;74;21064;-84
2021/06/11 06:25:26;;;;;;;4.08;2.85;;;22.40;99.90;;;;;;1924791;74;21100;-84
2021/06/11 06:27:52;;;;;;;2.35;2.00;;;22.30;99.90;;;;;;1924727;74;21096;-85
2021/06/11 06:30:18;;;;;;;3.30;2.58;;;22.60;99.90;;;;;;1924794;74;21139;-84
2021/06/11 06:32:44;;;;;;;3.55;2.55;;;23.50;99.90;;;;;;1922998;74;21037;-84
2021/06/11 06:35:11;;;;;;;6.00;2.17;;;23.80;99.90;;;;;;1924678;74;21131;-84
2021/06/11 06:37:38;;;;;;;3.25;2.52;;;24.80;99.90;;;;;;1920495;74;21084;-84
2021/06/11 06:40:06;;;;;;;4.17;2.67;;;24.70;99.90;;;;;;1923210;74;21516;-84
2021/06/11 06:42:33;;;;;;;3.45;2.50;;;24.70;99.90;;;;;;1926035;74;21125;-84
2021/06/11 06:44:59;;;;;;;3.85;2.52;;;24.30;99.90;;;;;;1922984;74;21059;-85
2021/06/11 06:47:25;;;;;;;3.90;2.85;;;24.10;99.90;;;;;;1926280;74;21022;-85
2021/06/11 06:49:51;;;;;;;4.10;2.70;;;23.50;99.90;;;;;;1926884;74;21058;-85
2021/06/11 06:52:17;;;;;;;2.95;2.50;;;23.70;99.90;;;;;;1927449;74;21082;-86
2021/06/11 06:54:43;;;;;;;3.25;2.60;;;24.00;99.90;;;;;;1926696;74;21033;-85
2021/06/11 06:57:09;;;;;;;8.25;2.62;;;23.50;99.90;;;;;;1927428;74;21102;-85
2021/06/11 06:59:35;;;;;;;4.25;2.50;;;23.50;99.90;;;;;;1927755;74;21025;-84
2021/06/11 07:02:02;;;;;;;3.35;2.47;;;23.60;99.90;;;;;;1927246;74;21094;-85
2021/06/11 07:04:28;;;;;;;4.40;2.58;;;24.10;99.90;;;;;;1926451;74;21037;-85
2021/06/11 07:06:54;;;;;;;3.92;2.40;;;24.60;99.90;;;;;;1926012;74;21088;-85
2021/06/11 07:09:20;;;;;;;2.72;2.27;;;24.60;99.90;;;;;;1925125;74;21143;-85
2021/06/11 07:11:51;;;;;;;6.25;2.92;;;24.40;99.90;;;;;;1925032;74;21142;-86
2021/06/11 07:14:17;;;;;;;3.17;2.50;;;24.20;99.90;;;;;;1924589;73;21482;-85
2021/06/11 07:16:43;;;;;;;3.47;2.55;;;24.10;99.90;;;;;;1927194;74;21110;-85
2021/06/11 07:19:09;;;;;;;4.85;2.60;;;24.30;99.90;;;;;;1927486;73;21450;-85
2021/06/11 07:21:35;;;;;;;4.10;2.30;;;24.70;99.90;;;;;;1924981;74;21057;-86
2021/06/11 07:24:01;;;;;;;2.95;2.30;;;24.90;99.90;;;;;;1924803;74;21394;-86
2021/06/11 07:26:28;;;;;;;2.80;2.25;;;25.10;99.90;;;;;;1924828;74;21500;-86
2021/06/11 07:28:54;;;;;;;3.00;2.27;;;24.60;99.90;;;;;;1924840;74;21530;-85
2021/06/11 07:31:20;;;;;;;4.78;2.25;;;24.40;99.90;;;;;;1924734;74;21578;-85
2021/06/11 07:33:47;;;;;;;3.67;2.17;;;24.00;99.90;;;;;;1925094;74;21042;-85
2021/06/11 07:36:13;;;;;;;2.85;2.37;;;24.70;99.90;;;;;;1925208;74;21084;-85
2021/06/11 07:38:39;;;;;;;4.22;2.85;;;25.10;99.90;;;;;;1924921;74;21073;-85
2021/06/11 07:41:05;;;;;;;11.55;3.10;;;24.80;99.90;;;;;;1924821;74;21220;-85
2021/06/11 07:43:31;;;;;;;3.62;2.62;;;24.40;99.90;;;;;;1924694;74;21485;-86
2021/06/11 07:45:57;;;;;;;3.70;2.52;;;25.10;99.90;;;;;;1924802;74;21570;-86
2021/06/11 07:48:23;;;;;;;4.90;2.58;;;25.50;99.90;;;;;;1924578;74;21468;-86
2021/06/11 07:50:53;;;;;;;3.33;2.33;;;25.40;99.90;;;;;;1925853;74;21065;-86
2021/06/11 07:53:23;;;;;;;5.40;2.80;;;24.60;99.90;;;;;;1925427;74;21113;-85
2021/06/11 07:55:48;;;;;;;4.70;2.55;;;24.50;99.90;;;;;;1925452;74;21156;-86
2021/06/11 07:58:14;;;;;;;3.05;2.40;;;24.70;99.90;;;;;;1925954;74;21073;-86
2021/06/11 08:00:40;;;;;;;3.40;2.20;;;25.40;99.90;;;;;;1925757;74;21073;-86
2021/06/11 08:03:07;;;;;;;3.42;2.17;;;25.90;99.90;;;;;;1925045;74;21135;-85
2021/06/11 08:05:33;;;;;;;8.45;2.35;;;26.00;99.90;;;;;;1924853;74;21182;-87
2021/06/11 08:07:59;;;;;;;3.30;2.47;;;25.50;99.90;;;;;;1924878;73;21078;-86
2021/06/11 08:10:26;;;;;;;3.20;2.30;;;25.90;99.90;;;;;;1924764;74;21138;-85
2021/06/11 08:12:52;;;;;;;4.15;2.72;;;26.00;99.90;;;;;;1924772;74;21112;-86
2021/06/11 08:15:18;;;;;;;6.87;3.30;;;25.70;99.90;;;;;;1924730;74;21127;-86
2021/06/11 08:17:45;;;;;;;3.55;2.65;;;25.20;99.90;;;;;;1924551;74;21139;-86
2021/06/11 08:20:11;;;;;;;12.13;2.80;;;25.50;99.90;;;;;;1924983;74;21109;-85
2021/06/11 08:22:38;;;;;;;4.12;2.92;;;26.10;99.90;;;;;;1924679;74;21073;-86
2021/06/11 08:25:04;;;;;;;4.42;2.90;;;25.70;99.90;;;;;;1922980;74;21101;-85
2021/06/11 08:27:30;;;;;;;4.80;3.25;;;25.80;99.90;;;;;;1925183;74;21220;-85
2021/06/11 08:29:56;;;;;;;5.03;3.22;;;24.90;99.90;;;;;;1921875;74;21065;-85
2021/06/11 08:32:22;;;;;;;7.78;2.85;;;25.10;99.90;;;;;;1923110;74;21570;-85
2021/06/11 08:34:48;;;;;;;3.17;2.85;;;25.20;99.90;;;;;;1924676;74;21040;-86
2021/06/11 08:37:14;;;;;;;4.75;3.10;;;25.00;99.90;;;;;;1924631;74;21490;-85
2021/06/11 08:39:40;;;;;;;7.95;3.27;;;25.00;99.90;;;;;;1924805;74;21467;-85
2021/06/11 08:42:07;;;;;;;3.87;2.83;;;24.70;99.90;;;;;;1924744;73;21499;-85
2021/06/11 08:44:33;;;;;;;5.60;3.20;;;25.10;99.90;;;;;;1925416;74;21197;-87
2021/06/11 08:46:59;;;;;;;4.70;3.22;;;25.50;99.90;;;;;;1924708;74;21489;-85
2021/06/11 08:49:25;;;;;;;3.90;2.87;;;25.30;99.90;;;;;;1924991;74;21473;-86
2021/06/11 08:51:51;;;;;;;4.87;2.83;;;25.40;99.90;;;;;;1924853;74;21090;-86
2021/06/11 08:54:18;;;;;;;3.77;3.10;;;25.30;99.90;;;;;;1925247;74;21159;-87
2021/06/11 08:56:44;;;;;;;5.17;2.85;;;24.90;99.90;;;;;;1924976;74;21061;-85
2021/06/11 08:59:10;;;;;;;4.72;3.30;;;24.90;99.90;;;;;;1925073;74;21511;-88
2021/06/11 09:01:36;;;;;;;4.20;2.87;;;25.60;99.90;;;;;;1924944;74;21092;-86
2021/06/11 09:04:02;;;;;;;6.95;3.98;;;25.90;99.90;;;;;;1925565;74;21065;-85
2021/06/11 09:06:28;;;;;;;5.22;3.20;;;25.40;99.90;;;;;;1925638;74;21029;-82
2021/06/11 09:08:55;;;;;;;5.70;3.25;;;25.20;99.90;;;;;;1925198;74;21139;-86
2021/06/11 09:11:21;;;;;;;6.92;3.62;;;25.10;99.90;;;;;;1925519;74;21061;-84
2021/06/11 09:13:49;;;;;;;3.50;2.92;;;25.50;99.90;;;;;;1924985;74;21477;-86
2021/06/11 09:16:15;;;;;;;11.48;3.30;;;26.00;99.90;;;;;;1924869;73;21101;-86
2021/06/11 09:18:41;;;;;;;5.00;2.37;;;26.40;99.90;;;;;;1924928;74;21057;-87
2021/06/11 09:21:07;;;;;;;3.58;2.80;;;26.50;99.90;;;;;;1925117;74;21048;-88
2021/06/11 09:23:33;;;;;;;4.15;2.95;;;26.90;99.90;;;;;;1925024;74;21202;-87
2021/06/11 09:25:59;;;;;;;3.00;2.70;;;26.80;99.90;;;;;;1925155;74;21026;-86
2021/06/11 09:28:26;;;;;;;3.17;2.72;;;26.80;99.90;;;;;;1925026;74;21134;-87
2021/06/11 09:30:52;;;;;;;12.85;3.67;;;27.00;99.90;;;;;;1925219;74;21146;-87
2021/06/11 09:33:18;;;;;;;8.00;3.20;;;27.50;99.90;;;;;;1925151;74;21029;-87
2021/06/11 09:35:44;;;;;;;4.05;2.95;;;27.20;99.90;;;;;;1926647;74;21054;-86
2021/06/11 09:38:13;;;;;;;6.35;3.30;;;27.10;99.90;;;;;;1927063;74;21006;-84
2021/06/11 09:40:39;;;;;;;2.90;2.60;;;26.90;99.90;;;;;;1893437;74;21093;-86
2021/06/11 09:43:05;;;;;;;3.95;2.95;;;27.30;99.90;;;;;;1925180;74;21033;-87
2021/06/11 09:45:31;;;;;;;4.62;2.37;;;28.20;99.90;;;;;;1925322;74;21058;-86
2021/06/11 09:47:58;;;;;;;3.42;2.70;;;28.30;99.90;;;;;;1925186;74;21138;-86
2021/06/11 09:50:26;;;;;;;3.90;2.77;;;27.70;99.90;;;;;;1925095;74;21065;-86
2021/06/11 09:52:52;;;;;;;3.77;3.20;;;28.20;99.90;;;;;;1925123;74;21108;-87
2021/06/11 09:55:18;;;;;;;4.00;2.70;;;28.10;99.90;;;;;;1925084;74;21002;-86
2021/06/11 09:57:44;;;;;;;4.15;2.95;;;28.10;99.90;;;;;;1925104;74;21061;-86
2021/06/11 10:00:11;;;;;;;5.87;3.02;;;28.20;99.90;;;;;;1925200;74;21208;-88
2021/06/11 10:02:37;;;;;;;4.25;2.80;;;27.90;99.90;;;;;;1925279;74;21070;-87
2021/06/11 10:05:03;;;;;;;3.17;2.75;;;27.80;99.90;;;;;;1925324;74;21494;-85
2021/06/11 10:07:29;;;;;;;4.50;2.77;;;27.90;99.90;;;;;;1925626;74;21127;-85
2021/06/11 10:09:58;;;;;;;8.68;3.30;;;28.40;99.90;;;;;;1924151;74;21494;-84
2021/06/11 10:12:24;;;;;;;5.85;3.42;;;27.80;99.90;;;;;;1927257;74;21160;-83
2021/06/11 10:14:50;;;;;;;3.98;2.85;;;27.60;99.90;;;;;;1924756;74;21060;-85
2021/06/11 10:20:02;;;;;;;3.10;2.80;;;27.20;99.90;;;;;;1930375;74;21123;-84
2021/06/11 10:22:28;;;;;;;7.45;2.80;;;27.50;99.90;;;;;;1930176;74;21482;-85
2021/06/11 10:24:54;;;;;;;2.90;2.60;;;27.40;99.90;;;;;;1930029;74;21069;-85
2021/06/11 10:27:20;;;;;;;5.00;3.10;;;27.40;99.90;;;;;;1930078;74;21063;-83
2021/06/11 10:29:46;;;;;;;4.50;3.05;;;27.80;99.90;;;;;;1930187;74;21132;-84
2021/06/11 10:32:12;;;;;;;7.50;2.10;;;28.00;99.90;;;;;;1930138;74;21059;-84
2021/06/11 10:34:38;;;;;;;3.80;2.60;;;27.20;99.90;;;;;;1929875;74;21031;-85
2021/06/11 10:37:05;;;;;;;3.40;1.85;;;27.10;99.90;;;;;;1930099;74;21132;-84
2021/06/11 10:39:31;;;;;;;6.78;2.10;;;27.80;99.90;;;;;;1929958;74;21226;-85
2021/06/11 10:41:58;;;;;;;3.85;2.60;;;27.90;99.90;;;;;;1929903;74;21083;-85
2021/06/11 10:44:27;;;;;;;2.83;2.22;;;28.50;99.90;;;;;;1929988;74;21436;-83
2021/06/11 10:46:53;;;;;;;2.00;1.80;;;29.20;99.90;;;;;;1930118;74;21062;-85
2021/06/11 10:49:21;;;;;;;5.17;2.00;;;29.10;97.00;;;;;;1929875;74;21750;-84
2021/06/11 10:51:47;;;;;;;2.77;1.98;;;28.30;97.00;;;;;;1929966;74;21447;-84
2021/06/11 10:54:13;;;;;;;2.52;2.20;;;28.50;98.50;;;;;;1930216;74;21137;-85
2021/06/11 10:56:40;;;;;;;2.67;2.40;;;28.70;99.90;;;;;;1933447;72;20984;-83
2021/06/11 10:59:06;;;;;;;2.50;2.20;;;28.70;99.60;;;;;;1931878;72;21100;-83
2021/06/11 11:01:33;;;;;;;6.22;2.83;;;28.90;99.90;;;;;;1930187;74;21197;-83
2021/06/11 11:03:59;;;;;;;3.75;2.22;;;29.40;99.90;;;;;;1930117;74;21109;-84
2021/06/11 11:06:25;;;;;;;4.78;1.98;;;30.20;98.30;;;;;;1930225;74;21080;-83
2021/06/11 11:08:52;;;;;;;3.05;2.17;;;30.30;95.40;;;;;;1930003;74;21475;-83
2021/06/11 11:11:18;;;;;;;3.17;1.92;;;29.30;95.40;;;;;;1930272;74;21099;-81
2021/06/11 11:13:44;;;;;;;2.47;2.10;;;29.00;97.50;;;;;;1930428;74;21063;-84
2021/06/11 11:16:11;;;;;;;3.37;2.00;;;29.40;96.00;;;;;;1929894;74;21067;-84
2021/06/11 11:18:37;;;;;;;3.70;2.50;;;29.60;97.60;;;;;;1930031;74;21072;-84
2021/06/11 11:21:03;;;;;;;3.02;2.35;;;29.30;99.10;;;;;;1930548;74;21125;-84
2021/06/11 11:23:30;;;;;;;5.90;2.00;;;28.30;99.70;;;;;;1930336;74;21035;-83
2021/06/11 11:25:56;;;;;;;3.15;2.10;;;28.10;99.90;;;;;;1930184;74;21066;-84
2021/06/11 11:28:22;;;;;;;2.50;2.20;;;28.10;99.30;;;;;;1929838;74;21137;-83
2021/06/11 11:30:51;;;;;;;3.25;2.20;;;27.90;99.00;;;;;;1930548;74;21063;-83
2021/06/11 11:33:16;;;;;;;2.87;2.00;;;27.90;99.90;;;;;;1929942;74;21537;-84
2021/06/11 11:35:43;;;;;;;3.83;1.98;;;27.90;99.90;;;;;;1930087;74;21544;-83
2021/06/11 11:38:09;;;;;;;5.22;2.42;;;27.70;99.90;;;;;;1930156;74;21071;-82
2021/06/11 11:40:35;;;;;;;4.70;2.25;;;27.40;99.90;;;;;;1930221;74;21136;-83
2021/06/11 11:43:02;;;;;;;3.20;2.50;;;28.10;99.90;;;;;;1930055;74;21219;-83
2021/06/11 11:45:28;;;;;;;7.12;2.10;;;28.40;97.30;;;;;;1930080;74;21067;-82
2021/06/11 11:47:54;;;;;;;2.58;2.35;;;28.60;96.90;;;;;;1930037;74;21071;-83
2021/06/11 11:50:21;;;;;;;2.45;2.02;;;29.20;94.90;;;;;;1930010;74;21503;-84
2021/06/11 11:52:47;;;;;;;2.85;2.35;;;29.10;95.70;;;;;;1930237;74;21536;-83
2021/06/11 11:55:13;;;;;;;2.52;2.10;;;29.10;95.20;;;;;;1930465;74;21161;-84
2021/06/11 11:57:41;;;;;;;2.22;2.00;;;29.40;96.00;;;;;;1933192;72;21016;-83
2021/06/11 12:00:07;;;;;;;3.50;2.33;;;30.10;96.10;;;;;;1931581;73;21087;-84
2021/06/11 12:02:33;;;;;;;6.58;2.67;;;30.30;94.40;;;;;;1930096;74;21145;-84
2021/06/11 12:04:59;;;;;;;1.92;1.82;;;29.50;96.00;;;;;;1929899;74;21061;-84
2021/06/11 12:07:26;;;;;;;2.20;2.00;;;29.60;96.20;;;;;;1930372;74;21160;-83
2021/06/11 12:09:53;;;;;;;2.50;2.10;;;29.60;94.80;;;;;;1930857;74;21192;-84
2021/06/11 12:12:19;;;;;;;2.15;1.72;;;28.90;95.80;;;;;;1934995;74;21573;-83
2021/06/11 12:14:45;;;;;;;2.75;2.00;;;28.80;98.30;;;;;;1930732;74;21036;-84
2021/06/11 12:17:12;;;;;;;4.12;1.98;;;28.80;96.80;;;;;;1930696;74;21522;-84
2021/06/11 12:19:38;;;;;;;3.60;1.87;;;28.90;97.00;;;;;;1938834;74;21494;-84
2021/06/11 12:22:04;;;;;;;7.42;2.37;;;29.30;92.70;;;;;;1932724;74;21223;-83
2021/06/11 12:24:30;;;;;;;2.33;1.92;;;29.70;93.00;;;;;;1932215;74;21036;-83
2021/06/11 12:26:56;;;;;;;2.52;1.67;;;30.30;90.50;;;;;;1931024;74;21144;-83
2021/06/11 12:29:22;;;;;;;4.83;1.80;;;29.30;93.50;;;;;;1930475;74;21071;-84
2021/06/11 12:31:48;;;;;;;6.30;2.00;;;30.10;93.00;;;;;;1929754;74;21140;-84
2021/06/11 12:34:14;;;;;;;3.20;2.30;;;30.50;91.50;;;;;;1929571;74;21040;-83
2021/06/11 12:36:41;;;;;;;3.70;2.10;;;31.30;91.00;;;;;;1929671;74;21137;-82
2021/06/11 12:39:08;;;;;;;5.25;2.10;;;31.30;88.50;;;;;;1929538;74;21078;-83
2021/06/11 12:41:39;;;;;;;2.30;2.08;;;30.80;90.10;;;;;;1929446;74;21071;-83
2021/06/11 12:44:18;;;;;;;2.62;2.02;;;31.20;88.10;;;;;;1928627;74;21261;-83
2021/06/11 12:46:44;;;;;;;2.80;2.30;;;31.20;87.30;;;;;;1929364;74;21138;-80